sensor_id;sensor_type;location;lat;lon;timestamp;P1;P2;P0
55549;PMS7003;41397;49.972;18.944;2023-04-09T00:02:58;88;82;46
55549;PMS7003;41397;49.972;18.944;2023-04-09T00:06:00;98;94;61
55549;PMS7003;41397;49.972;18.944;2023-04-09T00:09:01;88;79;45
55549;PMS7003;41397;49.972;18.944;2023-04-09T00:12:03;99;85;54
55549;PMS7003;41397;49.972;18.944;2023-04-09T00:15:05;103;98;52
55549;PMS7003;41397;49.972;18.944;2023-04-09T00:18:07;86;79;46
55549;PMS7003;41397;49.972;18.944;2023-04-09T00:21:08;81;76;48
55549;PMS7003;41397;49.972;18.944;2023-04-09T00:24:10;90;85;48
55549;PMS7003;41397;49.972;18.944;2023-04-09T00:27:12;80;75;46
55549;PMS7003;41397;49.972;18.944;2023-04-09T00:30:13;92;79;43
55549;PMS7003;41397;49.972;18.944;2023-04-09T00:33:15;84;76;48
55549;PMS7003;41397;49.972;18.944;2023-04-09T00:36:17;81;72;41
55549;PMS7003;41397;49.972;18.944;2023-04-09T00:39:19;95;85;43
55549;PMS7003;41397;49.972;18.944;2023-04-09T00:42:20;99;87;50
55549;PMS7003;41397;49.972;18.944;2023-04-09T00:45:23;85;75;46
55549;PMS7003;41397;49.972;18.944;2023-04-09T00:48:25;93;89;58
55549;PMS7003;41397;49.972;18.944;2023-04-09T00:51:27;103;98;54
55549;PMS7003;41397;49.972;18.944;2023-04-09T00:54:29;92;90;55
55549;PMS7003;41397;49.972;18.944;2023-04-09T00:57:31;82;77;46
55549;PMS7003;41397;49.972;18.944;2023-04-09T01:00:34;92;90;53
55549;PMS7003;41397;49.972;18.944;2023-04-09T01:03:35;87;85;52
55549;PMS7003;41397;49.972;18.944;2023-04-09T01:10:00;106;93;54
55549;PMS7003;41397;49.972;18.944;2023-04-09T01:13:11;105;82;50
55549;PMS7003;41397;49.972;18.944;2023-04-09T01:16:16;96;87;54
55549;PMS7003;41397;49.972;18.944;2023-04-09T01:22:46;92;85;47
55549;PMS7003;41397;49.972;18.944;2023-04-09T01:29:15;99;93;51
55549;PMS7003;41397;49.972;18.944;2023-04-09T01:32:20;112;99;57
55549;PMS7003;41397;49.972;18.944;2023-04-09T01:35:22;92;82;45
55549;PMS7003;41397;49.972;18.944;2023-04-09T01:38:26;82;80;44
55549;PMS7003;41397;49.972;18.944;2023-04-09T01:41:29;92;86;48
55549;PMS7003;41397;49.972;18.944;2023-04-09T01:44:32;100;85;47
55549;PMS7003;41397;49.972;18.944;2023-04-09T01:47:34;88;80;50
55549;PMS7003;41397;49.972;18.944;2023-04-09T01:50:36;92;82;48
55549;PMS7003;41397;49.972;18.944;2023-04-09T01:53:38;89;80;48
55549;PMS7003;41397;49.972;18.944;2023-04-09T01:56:44;94;85;48
55549;PMS7003;41397;49.972;18.944;2023-04-09T01:59:47;96;90;52
55549;PMS7003;41397;49.972;18.944;2023-04-09T02:02:52;91;84;53
55549;PMS7003;41397;49.972;18.944;2023-04-09T02:06:12;111;91;52
55549;PMS7003;41397;49.972;18.944;2023-04-09T02:09:13;92;92;53
55549;PMS7003;41397;49.972;18.944;2023-04-09T02:12:21;96;83;47
55549;PMS7003;41397;49.972;18.944;2023-04-09T02:15:24;98;90;51
55549;PMS7003;41397;49.972;18.944;2023-04-09T02:18:28;109;86;53
55549;PMS7003;41397;49.972;18.944;2023-04-09T02:21:30;103;96;49
55549;PMS7003;41397;49.972;18.944;2023-04-09T02:24:32;101;92;54
55549;PMS7003;41397;49.972;18.944;2023-04-09T02:27:33;102;94;54
55549;PMS7003;41397;49.972;18.944;2023-04-09T02:30:35;114;102;59
55549;PMS7003;41397;49.972;18.944;2023-04-09T02:33:37;120;102;64
55549;PMS7003;41397;49.972;18.944;2023-04-09T02:36:38;123;97;61
55549;PMS7003;41397;49.972;18.944;2023-04-09T02:39:40;88;88;54
55549;PMS7003;41397;49.972;18.944;2023-04-09T02:42:41;101;74;44
55549;PMS7003;41397;49.972;18.944;2023-04-09T02:45:42;108;96;50
55549;PMS7003;41397;49.972;18.944;2023-04-09T02:48:45;95;94;51
55549;PMS7003;41397;49.972;18.944;2023-04-09T02:51:46;121;108;57
55549;PMS7003;41397;49.972;18.944;2023-04-09T02:54:48;95;84;56
55549;PMS7003;41397;49.972;18.944;2023-04-09T02:57:50;96;88;52
55549;PMS7003;41397;49.972;18.944;2023-04-09T03:00:53;105;93;60
55549;PMS7003;41397;49.972;18.944;2023-04-09T03:03:55;111;107;58
55549;PMS7003;41397;49.972;18.944;2023-04-09T03:06:56;106;93;54
55549;PMS7003;41397;49.972;18.944;2023-04-09T03:09:58;89;79;46
55549;PMS7003;41397;49.972;18.944;2023-04-09T03:13:02;92;84;47
55549;PMS7003;41397;49.972;18.944;2023-04-09T03:16:04;84;80;43
55549;PMS7003;41397;49.972;18.944;2023-04-09T03:19:06;99;91;53
55549;PMS7003;41397;49.972;18.944;2023-04-09T03:22:07;84;71;32
55549;PMS7003;41397;49.972;18.944;2023-04-09T03:25:11;95;91;46
55549;PMS7003;41397;49.972;18.944;2023-04-09T03:28:12;104;96;50
55549;PMS7003;41397;49.972;18.944;2023-04-09T03:31:13;103;94;49
55549;PMS7003;41397;49.972;18.944;2023-04-09T03:34:15;102;93;53
55549;PMS7003;41397;49.972;18.944;2023-04-09T03:37:19;91;85;51
55549;PMS7003;41397;49.972;18.944;2023-04-09T03:40:20;120;104;57
55549;PMS7003;41397;49.972;18.944;2023-04-09T03:43:22;113;109;63
55549;PMS7003;41397;49.972;18.944;2023-04-09T03:46:23;101;90;56
55549;PMS7003;41397;49.972;18.944;2023-04-09T03:49:27;95;87;52
55549;PMS7003;41397;49.972;18.944;2023-04-09T03:52:28;96;89;52
55549;PMS7003;41397;49.972;18.944;2023-04-09T03:55:30;90;79;49
55549;PMS7003;41397;49.972;18.944;2023-04-09T03:58:32;95;92;48
55549;PMS7003;41397;49.972;18.944;2023-04-09T04:01:35;79;72;39
55549;PMS7003;41397;49.972;18.944;2023-04-09T04:04:37;60;52;37
55549;PMS7003;41397;49.972;18.944;2023-04-09T04:07:38;66;59;36
55549;PMS7003;41397;49.972;18.944;2023-04-09T04:10:43;62;52;35
55549;PMS7003;41397;49.972;18.944;2023-04-09T04:13:44;70;63;37
55549;PMS7003;41397;49.972;18.944;2023-04-09T04:16:46;60;53;30
55549;PMS7003;41397;49.972;18.944;2023-04-09T04:19:47;64;52;37
55549;PMS7003;41397;49.972;18.944;2023-04-09T04:22:48;60;52;33
55549;PMS7003;41397;49.972;18.944;2023-04-09T04:25:52;66;62;39
55549;PMS7003;41397;49.972;18.944;2023-04-09T04:28:54;61;53;35
55549;PMS7003;41397;49.972;18.944;2023-04-09T04:31:55;71;66;34
55549;PMS7003;41397;49.972;18.944;2023-04-09T04:34:57;64;58;37
55549;PMS7003;41397;49.972;18.944;2023-04-09T04:38:00;63;55;33
55549;PMS7003;41397;49.972;18.944;2023-04-09T04:41:02;71;68;39
55549;PMS7003;41397;49.972;18.944;2023-04-09T04:44:04;62;53;33
55549;PMS7003;41397;49.972;18.944;2023-04-09T04:47:05;65;58;37
55549;PMS7003;41397;49.972;18.944;2023-04-09T04:50:09;66;60;33
55549;PMS7003;41397;49.972;18.944;2023-04-09T04:53:10;62;56;36
55549;PMS7003;41397;49.972;18.944;2023-04-09T04:56:15;67;59;34
55549;PMS7003;41397;49.972;18.944;2023-04-09T04:59:17;66;61;35
55549;PMS7003;41397;49.972;18.944;2023-04-09T05:02:18;64;56;34
55549;PMS7003;41397;49.972;18.944;2023-04-09T05:05:20;66;59;40
55549;PMS7003;41397;49.972;18.944;2023-04-09T05:08:21;60;53;33
55549;PMS7003;41397;49.972;18.944;2023-04-09T05:11:25;62;52;36
55549;PMS7003;41397;49.972;18.944;2023-04-09T05:14:27;66;60;39
55549;PMS7003;41397;49.972;18.944;2023-04-09T05:17:29;58;47;22
55549;PMS7003;41397;49.972;18.944;2023-04-09T05:20:30;67;60;37
55549;PMS7003;41397;49.972;18.944;2023-04-09T05:23:32;69;67;36
55549;PMS7003;41397;49.972;18.944;2023-04-09T05:26:33;68;63;37
55549;PMS7003;41397;49.972;18.944;2023-04-09T05:29:35;66;59;39
55549;PMS7003;41397;49.972;18.944;2023-04-09T05:53:41;71;69;43
55549;PMS7003;41397;49.972;18.944;2023-04-09T06:07:20;70;64;37
55549;PMS7003;41397;49.972;18.944;2023-04-09T06:45:44;63;57;34
55549;PMS7003;41397;49.972;18.944;2023-04-09T06:59:12;62;53;32
55549;PMS7003;41397;49.972;18.944;2023-04-09T07:05:47;61;51;31
55549;PMS7003;41397;49.972;18.944;2023-04-09T07:08:48;58;49;31
55549;PMS7003;41397;49.972;18.944;2023-04-09T07:11:50;62;54;30
55549;PMS7003;41397;49.972;18.944;2023-04-09T07:14:51;62;53;34
55549;PMS7003;41397;49.972;18.944;2023-04-09T07:17:53;61;49;30
55549;PMS7003;41397;49.972;18.944;2023-04-09T07:20:56;60;51;32
55549;PMS7003;41397;49.972;18.944;2023-04-09T07:24:01;66;54;35
55549;PMS7003;41397;49.972;18.944;2023-04-09T07:27:11;61;50;33
55549;PMS7003;41397;49.972;18.944;2023-04-09T07:30:13;63;55;34
55549;PMS7003;41397;49.972;18.944;2023-04-09T07:33:15;57;47;32
55549;PMS7003;41397;49.972;18.944;2023-04-09T07:36:16;52;44;29
55549;PMS7003;41397;49.972;18.944;2023-04-09T07:39:19;59;48;29
55549;PMS7003;41397;49.972;18.944;2023-04-09T07:42:23;54;45;27
55549;PMS7003;41397;49.972;18.944;2023-04-09T07:45:26;62;48;29
55549;PMS7003;41397;49.972;18.944;2023-04-09T07:48:28;47;40;28
55549;PMS7003;41397;49.972;18.944;2023-04-09T07:51:29;49;41;27
55549;PMS7003;41397;49.972;18.944;2023-04-09T07:54:32;43;37;25
55549;PMS7003;41397;49.972;18.944;2023-04-09T07:57:34;47;39;25
55549;PMS7003;41397;49.972;18.944;2023-04-09T08:00:37;44;38;25
55549;PMS7003;41397;49.972;18.944;2023-04-09T08:03:38;36;32;23
55549;PMS7003;41397;49.972;18.944;2023-04-09T08:06:43;36;32;22
55549;PMS7003;41397;49.972;18.944;2023-04-09T08:09:50;39;34;24
55549;PMS7003;41397;49.972;18.944;2023-04-09T08:12:51;44;37;23
55549;PMS7003;41397;49.972;18.944;2023-04-09T08:15:53;47;39;24
55549;PMS7003;41397;49.972;18.944;2023-04-09T08:18:55;42;36;24
55549;PMS7003;41397;49.972;18.944;2023-04-09T08:21:57;37;33;23
55549;PMS7003;41397;49.972;18.944;2023-04-09T08:28:14;36;32;20
55549;PMS7003;41397;49.972;18.944;2023-04-09T08:31:15;39;35;24
55549;PMS7003;41397;49.972;18.944;2023-04-09T08:34:17;40;35;23
55549;PMS7003;41397;49.972;18.944;2023-04-09T08:40:52;40;34;21
55549;PMS7003;41397;49.972;18.944;2023-04-09T08:43:53;41;31;21
55549;PMS7003;41397;49.972;18.944;2023-04-09T08:46:56;31;28;18
55549;PMS7003;41397;49.972;18.944;2023-04-09T08:49:58;40;35;24
55549;PMS7003;41397;49.972;18.944;2023-04-09T08:53:03;41;35;24
55549;PMS7003;41397;49.972;18.944;2023-04-09T08:56:15;38;34;23
55549;PMS7003;41397;49.972;18.944;2023-04-09T08:59:36;43;36;26
55549;PMS7003;41397;49.972;18.944;2023-04-09T09:02:37;31;28;20
55549;PMS7003;41397;49.972;18.944;2023-04-09T09:05:40;36;33;22
55549;PMS7003;41397;49.972;18.944;2023-04-09T09:08:48;40;35;23
55549;PMS7003;41397;49.972;18.944;2023-04-09T09:12:15;30;26;18
55549;PMS7003;41397;49.972;18.944;2023-04-09T09:15:28;40;35;22
55549;PMS7003;41397;49.972;18.944;2023-04-09T09:28:51;34;31;21
55549;PMS7003;41397;49.972;18.944;2023-04-09T09:39:23;29;27;17
55549;PMS7003;41397;49.972;18.944;2023-04-09T10:52:21;28;25;17
55549;PMS7003;41397;49.972;18.944;2023-04-09T10:58:39;31;29;21
55549;PMS7003;41397;49.972;18.944;2023-04-09T11:01:50;32;29;19
55549;PMS7003;41397;49.972;18.944;2023-04-09T11:08:07;33;30;20
55549;PMS7003;41397;49.972;18.944;2023-04-09T11:11:10;26;25;19
55549;PMS7003;41397;49.972;18.944;2023-04-09T11:14:18;36;32;20
55549;PMS7003;41397;49.972;18.944;2023-04-09T11:27:59;30;28;19
55549;PMS7003;41397;49.972;18.944;2023-04-09T11:31:04;23;22;16
55549;PMS7003;41397;49.972;18.944;2023-04-09T11:34:08;34;31;20
55549;PMS7003;41397;49.972;18.944;2023-04-09T11:37:13;26;25;18
55549;PMS7003;41397;49.972;18.944;2023-04-09T11:40:17;28;27;18
55549;PMS7003;41397;49.972;18.944;2023-04-09T11:43:23;35;31;23
55549;PMS7003;41397;49.972;18.944;2023-04-09T11:46:24;24;23;15
55549;PMS7003;41397;49.972;18.944;2023-04-09T12:38:30;28;27;18
55549;PMS7003;41397;49.972;18.944;2023-04-09T12:41:31;22;22;17
55549;PMS7003;41397;49.972;18.944;2023-04-09T12:44:32;25;25;20
55549;PMS7003;41397;49.972;18.944;2023-04-09T12:47:37;32;29;20
55549;PMS7003;41397;49.972;18.944;2023-04-09T12:50:42;23;23;17
55549;PMS7003;41397;49.972;18.944;2023-04-09T12:53:45;18;18;14
55549;PMS7003;41397;49.972;18.944;2023-04-09T12:56:46;19;19;16
55549;PMS7003;41397;49.972;18.944;2023-04-09T12:59:50;19;19;14
55549;PMS7003;41397;49.972;18.944;2023-04-09T13:02:51;20;20;17
55549;PMS7003;41397;49.972;18.944;2023-04-09T13:05:54;27;26;18
55549;PMS7003;41397;49.972;18.944;2023-04-09T13:08:56;24;24;17
55549;PMS7003;41397;49.972;18.944;2023-04-09T13:22:09;20;20;13
55549;PMS7003;41397;49.972;18.944;2023-04-09T13:25:14;27;26;17
55549;PMS7003;41397;49.972;18.944;2023-04-09T13:28:38;27;26;17
55549;PMS7003;41397;49.972;18.944;2023-04-09T13:31:40;16;15;12
55549;PMS7003;41397;49.972;18.944;2023-04-09T13:34:42;23;23;18
55549;PMS7003;41397;49.972;18.944;2023-04-09T13:37:43;17;17;12
55549;PMS7003;41397;49.972;18.944;2023-04-09T13:40:45;24;23;16
55549;PMS7003;41397;49.972;18.944;2023-04-09T13:43:47;23;23;19
55549;PMS7003;41397;49.972;18.944;2023-04-09T13:46:48;26;25;17
55549;PMS7003;41397;49.972;18.944;2023-04-09T13:49:50;23;23;16
55549;PMS7003;41397;49.972;18.944;2023-04-09T13:52:55;24;24;15
55549;PMS7003;41397;49.972;18.944;2023-04-09T13:56:05;30;28;18
55549;PMS7003;41397;49.972;18.944;2023-04-09T13:59:07;25;24;16
55549;PMS7003;41397;49.972;18.944;2023-04-09T14:02:11;24;24;15
55549;PMS7003;41397;49.972;18.944;2023-04-09T14:05:36;26;25;17
55549;PMS7003;41397;49.972;18.944;2023-04-09T14:08:39;21;21;16
55549;PMS7003;41397;49.972;18.944;2023-04-09T14:11:41;26;26;19
55549;PMS7003;41397;49.972;18.944;2023-04-09T14:14:42;19;19;12
55549;PMS7003;41397;49.972;18.944;2023-04-09T14:17:43;19;19;15
55549;PMS7003;41397;49.972;18.944;2023-04-09T14:20:45;27;26;18
55549;PMS7003;41397;49.972;18.944;2023-04-09T14:23:46;28;27;16
55549;PMS7003;41397;49.972;18.944;2023-04-09T14:26:48;24;24;18
55549;PMS7003;41397;49.972;18.944;2023-04-09T14:29:52;22;22;15
55549;PMS7003;41397;49.972;18.944;2023-04-09T14:32:54;22;22;16
55549;PMS7003;41397;49.972;18.944;2023-04-09T14:35:55;31;29;18
55549;PMS7003;41397;49.972;18.944;2023-04-09T14:38:58;29;27;18
55549;PMS7003;41397;49.972;18.944;2023-04-09T14:42:00;23;23;18
55549;PMS7003;41397;49.972;18.944;2023-04-09T14:45:02;28;27;19
55549;PMS7003;41397;49.972;18.944;2023-04-09T14:48:03;25;24;17
55549;PMS7003;41397;49.972;18.944;2023-04-09T14:51:07;28;27;15
55549;PMS7003;41397;49.972;18.944;2023-04-09T14:54:16;29;28;18
55549;PMS7003;41397;49.972;18.944;2023-04-09T14:57:17;20;20;16
55549;PMS7003;41397;49.972;18.944;2023-04-09T15:00:19;28;27;19
55549;PMS7003;41397;49.972;18.944;2023-04-09T15:03:21;24;24;17
55549;PMS7003;41397;49.972;18.944;2023-04-09T15:06:24;23;23;14
55549;PMS7003;41397;49.972;18.944;2023-04-09T15:09:27;28;27;19
55549;PMS7003;41397;49.972;18.944;2023-04-09T15:12:31;34;31;21
55549;PMS7003;41397;49.972;18.944;2023-04-09T15:15:33;29;28;19
55549;PMS7003;41397;49.972;18.944;2023-04-09T15:18:35;32;30;21
55549;PMS7003;41397;49.972;18.944;2023-04-09T15:21:37;26;25;16
55549;PMS7003;41397;49.972;18.944;2023-04-09T15:24:38;28;27;18
55549;PMS7003;41397;49.972;18.944;2023-04-09T15:27:40;28;26;15
55549;PMS7003;41397;49.972;18.944;2023-04-09T15:30:42;29;28;20
55549;PMS7003;41397;49.972;18.944;2023-04-09T15:33:43;28;27;20
55549;PMS7003;41397;49.972;18.944;2023-04-09T15:36:49;33;31;18
55549;PMS7003;41397;49.972;18.944;2023-04-09T15:39:50;34;31;21
55549;PMS7003;41397;49.972;18.944;2023-04-09T15:42:51;20;20;14
55549;PMS7003;41397;49.972;18.944;2023-04-09T15:45:54;23;22;16
55549;PMS7003;41397;49.972;18.944;2023-04-09T15:48:55;24;24;15
55549;PMS7003;41397;49.972;18.944;2023-04-09T15:51:56;21;21;16
55549;PMS7003;41397;49.972;18.944;2023-04-09T15:54:58;26;25;18
55549;PMS7003;41397;49.972;18.944;2023-04-09T15:57:59;32;30;20
55549;PMS7003;41397;49.972;18.944;2023-04-09T16:01:04;47;38;25
55549;PMS7003;41397;49.972;18.944;2023-04-09T16:04:07;39;33;21
55549;PMS7003;41397;49.972;18.944;2023-04-09T16:07:09;35;32;21
55549;PMS7003;41397;49.972;18.944;2023-04-09T16:10:11;37;33;24
55549;PMS7003;41397;49.972;18.944;2023-04-09T16:13:14;37;33;22
55549;PMS7003;41397;49.972;18.944;2023-04-09T16:16:16;35;31;24
55549;PMS7003;41397;49.972;18.944;2023-04-09T16:19:19;34;31;21
55549;PMS7003;41397;49.972;18.944;2023-04-09T16:22:21;44;37;23
55549;PMS7003;41397;49.972;18.944;2023-04-09T16:25:22;37;33;20
55549;PMS7003;41397;49.972;18.944;2023-04-09T16:28:24;41;35;22
55549;PMS7003;41397;49.972;18.944;2023-04-09T16:31:26;33;30;20
55549;PMS7003;41397;49.972;18.944;2023-04-09T16:34:27;50;42;24
55549;PMS7003;41397;49.972;18.944;2023-04-09T16:37:31;42;36;25
55549;PMS7003;41397;49.972;18.944;2023-04-09T16:42:34;47;41;26
55549;PMS7003;41397;49.972;18.944;2023-04-09T16:45:36;46;40;27
55549;PMS7003;41397;49.972;18.944;2023-04-09T16:48:38;46;40;26
55549;PMS7003;41397;49.972;18.944;2023-04-09T16:51:42;45;38;26
55549;PMS7003;41397;49.972;18.944;2023-04-09T16:54:45;45;39;27
55549;PMS7003;41397;49.972;18.944;2023-04-09T16:57:46;54;43;26
55549;PMS7003;41397;49.972;18.944;2023-04-09T17:00:48;49;42;26
55549;PMS7003;41397;49.972;18.944;2023-04-09T17:03:50;47;41;26
55549;PMS7003;41397;49.972;18.944;2023-04-09T17:06:52;80;78;46
55549;PMS7003;41397;49.972;18.944;2023-04-09T17:09:53;53;44;26
55549;PMS7003;41397;49.972;18.944;2023-04-09T17:12:55;48;41;25
55549;PMS7003;41397;49.972;18.944;2023-04-09T17:15:58;49;39;23
55549;PMS7003;41397;49.972;18.944;2023-04-09T17:19:00;49;42;29
55549;PMS7003;41397;49.972;18.944;2023-04-09T17:22:02;60;50;31
55549;PMS7003;41397;49.972;18.944;2023-04-09T17:25:04;54;46;29
55549;PMS7003;41397;49.972;18.944;2023-04-09T17:28:06;63;45;29
55549;PMS7003;41397;49.972;18.944;2023-04-09T17:31:11;57;47;28
55549;PMS7003;41397;49.972;18.944;2023-04-09T17:34:14;56;47;31
55549;PMS7003;41397;49.972;18.944;2023-04-09T17:37:16;55;46;30
55549;PMS7003;41397;49.972;18.944;2023-04-09T17:40:17;54;43;28
55549;PMS7003;41397;49.972;18.944;2023-04-09T17:43:20;51;43;28
55549;PMS7003;41397;49.972;18.944;2023-04-09T17:46:21;48;41;27
55549;PMS7003;41397;49.972;18.944;2023-04-09T17:49:23;46;40;26
55549;PMS7003;41397;49.972;18.944;2023-04-09T17:52:27;41;37;27
55549;PMS7003;41397;49.972;18.944;2023-04-09T17:55:34;46;39;27
55549;PMS7003;41397;49.972;18.944;2023-04-09T17:58:36;41;36;25
55549;PMS7003;41397;49.972;18.944;2023-04-09T18:01:37;46;39;26
55549;PMS7003;41397;49.972;18.944;2023-04-09T18:04:39;45;39;25
55549;PMS7003;41397;49.972;18.944;2023-04-09T18:07:41;48;41;29
55549;PMS7003;41397;49.972;18.944;2023-04-09T18:10:43;47;41;30
55549;PMS7003;41397;49.972;18.944;2023-04-09T18:13:44;50;42;26
55549;PMS7003;41397;49.972;18.944;2023-04-09T18:16:46;44;37;24
55549;PMS7003;41397;49.972;18.944;2023-04-09T18:19:48;43;35;22
55549;PMS7003;41397;49.972;18.944;2023-04-09T18:22:50;46;39;24
55549;PMS7003;41397;49.972;18.944;2023-04-09T18:25:51;39;35;24
55549;PMS7003;41397;49.972;18.944;2023-04-09T18:28:53;40;36;24
55549;PMS7003;41397;49.972;18.944;2023-04-09T18:31:55;44;35;24
55549;PMS7003;41397;49.972;18.944;2023-04-09T18:34:57;44;39;26
55549;PMS7003;41397;49.972;18.944;2023-04-09T18:37:59;38;34;23
55549;PMS7003;41397;49.972;18.944;2023-04-09T18:41:00;44;38;22
55549;PMS7003;41397;49.972;18.944;2023-04-09T18:44:02;44;38;26
55549;PMS7003;41397;49.972;18.944;2023-04-09T18:47:04;52;38;24
55549;PMS7003;41397;49.972;18.944;2023-04-09T18:50:09;45;39;25
55549;PMS7003;41397;49.972;18.944;2023-04-09T18:53:14;40;36;25
55549;PMS7003;41397;49.972;18.944;2023-04-09T18:56:16;42;37;25
55549;PMS7003;41397;49.972;18.944;2023-04-09T18:59:17;34;32;26
55549;PMS7003;41397;49.972;18.944;2023-04-09T19:02:19;38;35;23
55549;PMS7003;41397;49.972;18.944;2023-04-09T19:05:21;53;42;27
55549;PMS7003;41397;49.972;18.944;2023-04-09T19:08:22;42;37;23
55549;PMS7003;41397;49.972;18.944;2023-04-09T19:11:24;44;39;24
55549;PMS7003;41397;49.972;18.944;2023-04-09T19:17:40;48;39;27
55549;PMS7003;41397;49.972;18.944;2023-04-09T19:24:30;55;44;30
55549;PMS7003;41397;49.972;18.944;2023-04-09T19:31:03;62;50;31
55549;PMS7003;41397;49.972;18.944;2023-04-09T19:37:27;55;46;30
55549;PMS7003;41397;49.972;18.944;2023-04-09T19:40:40;62;48;30
55549;PMS7003;41397;49.972;18.944;2023-04-09T19:43:44;56;47;31
55549;PMS7003;41397;49.972;18.944;2023-04-09T19:46:46;54;45;26
55549;PMS7003;41397;49.972;18.944;2023-04-09T19:49:50;47;40;26
55549;PMS7003;41397;49.972;18.944;2023-04-09T19:52:53;52;42;26
55549;PMS7003;41397;49.972;18.944;2023-04-09T19:56:05;50;42;27
55549;PMS7003;41397;49.972;18.944;2023-04-09T19:59:07;50;41;26
55549;PMS7003;41397;49.972;18.944;2023-04-09T20:02:08;50;41;25
55549;PMS7003;41397;49.972;18.944;2023-04-09T20:05:15;55;45;27
55549;PMS7003;41397;49.972;18.944;2023-04-09T20:08:35;55;45;31
55549;PMS7003;41397;49.972;18.944;2023-04-09T20:11:37;64;57;33
55549;PMS7003;41397;49.972;18.944;2023-04-09T20:14:45;66;50;30
55549;PMS7003;41397;49.972;18.944;2023-04-09T20:17:48;64;52;33
55549;PMS7003;41397;49.972;18.944;2023-04-09T20:20:54;70;67;38
55549;PMS7003;41397;49.972;18.944;2023-04-09T20:23:58;65;57;37
55549;PMS7003;41397;49.972;18.944;2023-04-09T20:27:07;67;59;35
55549;PMS7003;41397;49.972;18.944;2023-04-09T20:30:21;74;69;37
55549;PMS7003;41397;49.972;18.944;2023-04-09T20:33:22;71;63;37
55549;PMS7003;41397;49.972;18.944;2023-04-09T20:36:24;78;68;38
55549;PMS7003;41397;49.972;18.944;2023-04-09T20:39:26;87;78;42
55549;PMS7003;41397;49.972;18.944;2023-04-09T20:42:27;77;76;39
55549;PMS7003;41397;49.972;18.944;2023-04-09T20:45:29;78;71;40
55549;PMS7003;41397;49.972;18.944;2023-04-09T20:48:30;67;60;38
55549;PMS7003;41397;49.972;18.944;2023-04-09T20:51:32;76;60;35
55549;PMS7003;41397;49.972;18.944;2023-04-09T20:54:33;75;69;39
55549;PMS7003;41397;49.972;18.944;2023-04-09T20:57:35;69;62;35
55549;PMS7003;41397;49.972;18.944;2023-04-09T21:00:40;66;58;36
55549;PMS7003;41397;49.972;18.944;2023-04-09T21:07:10;68;61;34
55549;PMS7003;41397;49.972;18.944;2023-04-09T21:10:11;64;58;38
55549;PMS7003;41397;49.972;18.944;2023-04-09T21:13:13;72;61;37
55549;PMS7003;41397;49.972;18.944;2023-04-09T21:16:16;66;56;34
55549;PMS7003;41397;49.972;18.944;2023-04-09T21:19:17;68;64;38
55549;PMS7003;41397;49.972;18.944;2023-04-09T21:22:19;76;70;35
55549;PMS7003;41397;49.972;18.944;2023-04-09T21:25:25;70;66;41
55549;PMS7003;41397;49.972;18.944;2023-04-09T21:28:28;72;64;37
55549;PMS7003;41397;49.972;18.944;2023-04-09T21:31:29;80;75;38
55549;PMS7003;41397;49.972;18.944;2023-04-09T21:34:30;72;67;41
55549;PMS7003;41397;49.972;18.944;2023-04-09T21:37:32;70;66;40
55549;PMS7003;41397;49.972;18.944;2023-04-09T21:40:34;71;66;38
55549;PMS7003;41397;49.972;18.944;2023-04-09T21:43:35;71;68;37
55549;PMS7003;41397;49.972;18.944;2023-04-09T21:46:38;85;77;39
55549;PMS7003;41397;49.972;18.944;2023-04-09T21:49:41;66;61;36
55549;PMS7003;41397;49.972;18.944;2023-04-09T21:52:45;70;67;38
55549;PMS7003;41397;49.972;18.944;2023-04-09T21:55:47;82;70;43
55549;PMS7003;41397;49.972;18.944;2023-04-09T21:58:48;75;64;34
55549;PMS7003;41397;49.972;18.944;2023-04-09T22:01:50;67;60;38
55549;PMS7003;41397;49.972;18.944;2023-04-09T22:04:52;66;61;36
55549;PMS7003;41397;49.972;18.944;2023-04-09T22:07:54;58;47;31
55549;PMS7003;41397;49.972;18.944;2023-04-09T22:10:55;61;49;31
55549;PMS7003;41397;49.972;18.944;2023-04-09T22:13:57;57;47;29
55549;PMS7003;41397;49.972;18.944;2023-04-09T22:16:58;61;47;29
55549;PMS7003;41397;49.972;18.944;2023-04-09T22:20:01;48;40;26
55549;PMS7003;41397;49.972;18.944;2023-04-09T22:23:04;54;42;26
55549;PMS7003;41397;49.972;18.944;2023-04-09T22:26:06;52;41;26
55549;PMS7003;41397;49.972;18.944;2023-04-09T22:29:07;47;39;25
55549;PMS7003;41397;49.972;18.944;2023-04-09T22:32:09;47;39;25
55549;PMS7003;41397;49.972;18.944;2023-04-09T22:35:11;52;43;25
55549;PMS7003;41397;49.972;18.944;2023-04-09T22:38:18;49;40;26
55549;PMS7003;41397;49.972;18.944;2023-04-09T22:41:19;52;42;25
55549;PMS7003;41397;49.972;18.944;2023-04-09T22:44:21;50;41;26
55549;PMS7003;41397;49.972;18.944;2023-04-09T22:47:22;46;39;25
55549;PMS7003;41397;49.972;18.944;2023-04-09T22:50:26;49;41;26
55549;PMS7003;41397;49.972;18.944;2023-04-09T22:53:28;51;42;29
55549;PMS7003;41397;49.972;18.944;2023-04-09T22:56:30;53;44;26
55549;PMS7003;41397;49.972;18.944;2023-04-09T22:59:33;49;41;26
55549;PMS7003;41397;49.972;18.944;2023-04-09T23:02:35;50;40;26
55549;PMS7003;41397;49.972;18.944;2023-04-09T23:05:37;51;41;25
55549;PMS7003;41397;49.972;18.944;2023-04-09T23:08:39;57;44;25
55549;PMS7003;41397;49.972;18.944;2023-04-09T23:11:40;47;40;25
55549;PMS7003;41397;49.972;18.944;2023-04-09T23:14:41;50;40;25
55549;PMS7003;41397;49.972;18.944;2023-04-09T23:17:43;54;44;26
55549;PMS7003;41397;49.972;18.944;2023-04-09T23:20:44;48;41;26
55549;PMS7003;41397;49.972;18.944;2023-04-09T23:23:46;50;41;27
55549;PMS7003;41397;49.972;18.944;2023-04-09T23:26:47;48;39;22
55549;PMS7003;41397;49.972;18.944;2023-04-09T23:29:49;55;41;23
55549;PMS7003;41397;49.972;18.944;2023-04-09T23:32:50;47;39;24
55549;PMS7003;41397;49.972;18.944;2023-04-09T23:35:53;45;38;24
55549;PMS7003;41397;49.972;18.944;2023-04-09T23:38:54;54;42;24
55549;PMS7003;41397;49.972;18.944;2023-04-09T23:41:56;49;41;26
55549;PMS7003;41397;49.972;18.944;2023-04-09T23:44:58;57;45;27
55549;PMS7003;41397;49.972;18.944;2023-04-09T23:48:04;50;42;26
55549;PMS7003;41397;49.972;18.944;2023-04-09T23:51:08;45;38;25
55549;PMS7003;41397;49.972;18.944;2023-04-09T23:54:09;51;42;26
55549;PMS7003;41397;49.972;18.944;2023-04-09T23:57:11;48;40;27
